sensor_id;sensor_type;location;lat;lon;timestamp;pressure;altitude;pressure_sealevel;temperature
20092;BMP180;10205;49.678;6.560;2023-02-22T00:00:40;99861.00;;;10.10
20092;BMP180;10205;49.678;6.560;2023-02-22T00:03:16;99862.00;;;10.10
20092;BMP180;10205;49.678;6.560;2023-02-22T00:05:46;99860.00;;;10.00
20092;BMP180;10205;49.678;6.560;2023-02-22T00:08:14;99858.00;;;10.00
20092;BMP180;10205;49.678;6.560;2023-02-22T00:10:42;99857.00;;;10.00
20092;BMP180;10205;49.678;6.560;2023-02-22T00:13:13;99850.00;;;9.90
20092;BMP180;10205;49.678;6.560;2023-02-22T00:15:40;99850.00;;;9.90
20092;BMP180;10205;49.678;6.560;2023-02-22T00:18:10;99853.00;;;9.90
20092;BMP180;10205;49.678;6.560;2023-02-22T00:20:39;99852.00;;;9.80
20092;BMP180;10205;49.678;6.560;2023-02-22T00:23:12;99852.00;;;9.80
20092;BMP180;10205;49.678;6.560;2023-02-22T00:25:42;99852.00;;;9.80
20092;BMP180;10205;49.678;6.560;2023-02-22T00:28:09;99848.00;;;9.70
20092;BMP180;10205;49.678;6.560;2023-02-22T00:30:36;99851.00;;;9.70
20092;BMP180;10205;49.678;6.560;2023-02-22T00:33:04;99846.00;;;9.70
20092;BMP180;10205;49.678;6.560;2023-02-22T00:35:33;99851.00;;;9.60
20092;BMP180;10205;49.678;6.560;2023-02-22T00:38:01;99847.00;;;9.60
20092;BMP180;10205;49.678;6.560;2023-02-22T00:40:33;99838.00;;;9.60
20092;BMP180;10205;49.678;6.560;2023-02-22T00:43:04;99834.00;;;9.50
20092;BMP180;10205;49.678;6.560;2023-02-22T00:45:33;99834.00;;;9.50
20092;BMP180;10205;49.678;6.560;2023-02-22T00:48:03;99840.00;;;9.50
20092;BMP180;10205;49.678;6.560;2023-02-22T00:50:33;99842.00;;;9.40
20092;BMP180;10205;49.678;6.560;2023-02-22T00:53:02;99833.00;;;9.40
20092;BMP180;10205;49.678;6.560;2023-02-22T00:55:33;99827.00;;;9.40
20092;BMP180;10205;49.678;6.560;2023-02-22T00:58:04;99834.00;;;9.40
20092;BMP180;10205;49.678;6.560;2023-02-22T01:00:34;99829.00;;;9.30
20092;BMP180;10205;49.678;6.560;2023-02-22T01:03:02;99834.00;;;9.30
20092;BMP180;10205;49.678;6.560;2023-02-22T01:05:33;99839.00;;;9.30
20092;BMP180;10205;49.678;6.560;2023-02-22T01:08:02;99832.00;;;9.20
20092;BMP180;10205;49.678;6.560;2023-02-22T01:10:32;99833.00;;;9.20
20092;BMP180;10205;49.678;6.560;2023-02-22T01:13:01;99823.00;;;9.20
20092;BMP180;10205;49.678;6.560;2023-02-22T01:15:35;99825.00;;;9.10
20092;BMP180;10205;49.678;6.560;2023-02-22T01:18:03;99835.00;;;9.10
20092;BMP180;10205;49.678;6.560;2023-02-22T01:20:32;99826.00;;;9.10
20092;BMP180;10205;49.678;6.560;2023-02-22T01:23:01;99825.00;;;9.00
20092;BMP180;10205;49.678;6.560;2023-02-22T01:25:31;99825.00;;;9.00
20092;BMP180;10205;49.678;6.560;2023-02-22T01:28:02;99833.00;;;9.00
20092;BMP180;10205;49.678;6.560;2023-02-22T01:30:34;99829.00;;;9.00
20092;BMP180;10205;49.678;6.560;2023-02-22T01:33:05;99828.00;;;8.90
20092;BMP180;10205;49.678;6.560;2023-02-22T01:35:37;99819.00;;;8.90
20092;BMP180;10205;49.678;6.560;2023-02-22T01:38:09;99830.00;;;8.90
20092;BMP180;10205;49.678;6.560;2023-02-22T01:40:39;99827.00;;;8.90
20092;BMP180;10205;49.678;6.560;2023-02-22T01:43:21;99825.00;;;8.80
20092;BMP180;10205;49.678;6.560;2023-02-22T01:45:59;99824.00;;;8.80
20092;BMP180;10205;49.678;6.560;2023-02-22T01:48:37;99825.00;;;8.70
20092;BMP180;10205;49.678;6.560;2023-02-22T01:51:13;99825.00;;;8.70
20092;BMP180;10205;49.678;6.560;2023-02-22T01:53:49;99802.00;;;8.70
20092;BMP180;10205;49.678;6.560;2023-02-22T01:56:20;99819.00;;;8.70
20092;BMP180;10205;49.678;6.560;2023-02-22T01:58:53;99822.00;;;8.60
20092;BMP180;10205;49.678;6.560;2023-02-22T02:01:23;99810.00;;;8.60
20092;BMP180;10205;49.678;6.560;2023-02-22T02:03:57;99810.00;;;8.60
20092;BMP180;10205;49.678;6.560;2023-02-22T02:06:31;99809.00;;;8.60
20092;BMP180;10205;49.678;6.560;2023-02-22T02:09:08;99810.00;;;8.50
20092;BMP180;10205;49.678;6.560;2023-02-22T02:11:37;99801.00;;;8.50
20092;BMP180;10205;49.678;6.560;2023-02-22T02:14:08;99811.00;;;8.50
20092;BMP180;10205;49.678;6.560;2023-02-22T02:16:40;99805.00;;;8.50
20092;BMP180;10205;49.678;6.560;2023-02-22T02:19:17;99800.00;;;8.40
20092;BMP180;10205;49.678;6.560;2023-02-22T02:22:27;99795.00;;;8.40
20092;BMP180;10205;49.678;6.560;2023-02-22T02:25:47;99801.00;;;8.40
20092;BMP180;10205;49.678;6.560;2023-02-22T02:32:26;99787.00;;;8.30
20092;BMP180;10205;49.678;6.560;2023-02-22T02:35:03;99784.00;;;8.20
20092;BMP180;10205;49.678;6.560;2023-02-22T02:37:43;99793.00;;;8.20
20092;BMP180;10205;49.678;6.560;2023-02-22T02:40:22;99788.00;;;8.20
20092;BMP180;10205;49.678;6.560;2023-02-22T02:43:00;99788.00;;;8.10
20092;BMP180;10205;49.678;6.560;2023-02-22T02:45:38;99783.00;;;8.10
20092;BMP180;10205;49.678;6.560;2023-02-22T02:48:11;99788.00;;;8.10
20092;BMP180;10205;49.678;6.560;2023-02-22T02:50:45;99783.00;;;8.10
20092;BMP180;10205;49.678;6.560;2023-02-22T02:53:18;99778.00;;;8.10
20092;BMP180;10205;49.678;6.560;2023-02-22T02:55:48;99796.00;;;8.10
20092;BMP180;10205;49.678;6.560;2023-02-22T02:58:19;99772.00;;;8.10
20092;BMP180;10205;49.678;6.560;2023-02-22T03:00:47;99769.00;;;8.00
20092;BMP180;10205;49.678;6.560;2023-02-22T03:03:45;99777.00;;;8.00
20092;BMP180;10205;49.678;6.560;2023-02-22T03:06:37;99772.00;;;8.00
20092;BMP180;10205;49.678;6.560;2023-02-22T03:09:16;99775.00;;;8.00
20092;BMP180;10205;49.678;6.560;2023-02-22T03:11:59;99758.00;;;7.90
20092;BMP180;10205;49.678;6.560;2023-02-22T03:14:39;99753.00;;;7.90
20092;BMP180;10205;49.678;6.560;2023-02-22T03:17:21;99759.00;;;7.90
20092;BMP180;10205;49.678;6.560;2023-02-22T03:19:57;99758.00;;;7.90
20092;BMP180;10205;49.678;6.560;2023-02-22T03:22:31;99760.00;;;7.80
20092;BMP180;10205;49.678;6.560;2023-02-22T03:25:04;99756.00;;;7.80
20092;BMP180;10205;49.678;6.560;2023-02-22T03:27:39;99750.00;;;7.80
20092;BMP180;10205;49.678;6.560;2023-02-22T03:30:15;99747.00;;;7.80
20092;BMP180;10205;49.678;6.560;2023-02-22T03:32:48;99750.00;;;7.80
20092;BMP180;10205;49.678;6.560;2023-02-22T03:35:23;99744.00;;;7.70
20092;BMP180;10205;49.678;6.560;2023-02-22T03:37:58;99748.00;;;7.70
20092;BMP180;10205;49.678;6.560;2023-02-22T03:40:33;99729.00;;;7.70
20092;BMP180;10205;49.678;6.560;2023-02-22T03:43:06;99732.00;;;7.70
20092;BMP180;10205;49.678;6.560;2023-02-22T03:45:39;99736.00;;;7.70
20092;BMP180;10205;49.678;6.560;2023-02-22T03:48:20;99729.00;;;7.60
20092;BMP180;10205;49.678;6.560;2023-02-22T03:50:51;99732.00;;;7.60
20092;BMP180;10205;49.678;6.560;2023-02-22T03:53:20;99726.00;;;7.60
20092;BMP180;10205;49.678;6.560;2023-02-22T03:55:50;99720.00;;;7.60
20092;BMP180;10205;49.678;6.560;2023-02-22T03:58:22;99731.00;;;7.60
20092;BMP180;10205;49.678;6.560;2023-02-22T04:00:52;99723.00;;;7.60
20092;BMP180;10205;49.678;6.560;2023-02-22T04:03:19;99726.00;;;7.50
20092;BMP180;10205;49.678;6.560;2023-02-22T04:05:47;99718.00;;;7.50
20092;BMP180;10205;49.678;6.560;2023-02-22T04:08:18;99730.00;;;7.50
20092;BMP180;10205;49.678;6.560;2023-02-22T04:10:45;99717.00;;;7.50
20092;BMP180;10205;49.678;6.560;2023-02-22T04:13:12;99719.00;;;7.50
20092;BMP180;10205;49.678;6.560;2023-02-22T04:15:39;99722.00;;;7.40
20092;BMP180;10205;49.678;6.560;2023-02-22T04:18:07;99718.00;;;7.40
20092;BMP180;10205;49.678;6.560;2023-02-22T04:20:34;99738.00;;;7.40
20092;BMP180;10205;49.678;6.560;2023-02-22T04:23:03;99717.00;;;7.40
20092;BMP180;10205;49.678;6.560;2023-02-22T04:25:32;99728.00;;;7.40
20092;BMP180;10205;49.678;6.560;2023-02-22T04:27:59;99716.00;;;7.30
20092;BMP180;10205;49.678;6.560;2023-02-22T04:30:26;99726.00;;;7.30
20092;BMP180;10205;49.678;6.560;2023-02-22T04:32:58;99723.00;;;7.30
20092;BMP180;10205;49.678;6.560;2023-02-22T04:35:26;99729.00;;;7.30
20092;BMP180;10205;49.678;6.560;2023-02-22T04:37:55;99728.00;;;7.30
20092;BMP180;10205;49.678;6.560;2023-02-22T04:40:23;99723.00;;;7.30
20092;BMP180;10205;49.678;6.560;2023-02-22T04:42:51;99723.00;;;7.20
20092;BMP180;10205;49.678;6.560;2023-02-22T04:45:18;99726.00;;;7.20
20092;BMP180;10205;49.678;6.560;2023-02-22T04:47:46;99729.00;;;7.20
20092;BMP180;10205;49.678;6.560;2023-02-22T04:50:14;99737.00;;;7.20
20092;BMP180;10205;49.678;6.560;2023-02-22T04:52:42;99730.00;;;7.20
20092;BMP180;10205;49.678;6.560;2023-02-22T04:55:09;99738.00;;;7.20
20092;BMP180;10205;49.678;6.560;2023-02-22T04:57:36;99724.00;;;7.10
20092;BMP180;10205;49.678;6.560;2023-02-22T05:00:06;99719.00;;;7.10
20092;BMP180;10205;49.678;6.560;2023-02-22T05:02:36;99715.00;;;7.10
20092;BMP180;10205;49.678;6.560;2023-02-22T05:05:05;99720.00;;;7.10
20092;BMP180;10205;49.678;6.560;2023-02-22T05:07:32;99714.00;;;7.10
20092;BMP180;10205;49.678;6.560;2023-02-22T05:09:59;99727.00;;;7.00
20092;BMP180;10205;49.678;6.560;2023-02-22T05:12:27;99722.00;;;7.00
20092;BMP180;10205;49.678;6.560;2023-02-22T05:14:55;99709.00;;;7.00
20092;BMP180;10205;49.678;6.560;2023-02-22T05:17:24;99711.00;;;6.90
20092;BMP180;10205;49.678;6.560;2023-02-22T05:19:51;99708.00;;;6.90
20092;BMP180;10205;49.678;6.560;2023-02-22T05:22:18;99707.00;;;6.90
20092;BMP180;10205;49.678;6.560;2023-02-22T05:24:45;99707.00;;;6.90
20092;BMP180;10205;49.678;6.560;2023-02-22T05:27:12;99708.00;;;6.90
20092;BMP180;10205;49.678;6.560;2023-02-22T05:29:39;99698.00;;;6.90
20092;BMP180;10205;49.678;6.560;2023-02-22T05:32:08;99705.00;;;6.90
20092;BMP180;10205;49.678;6.560;2023-02-22T05:34:38;99707.00;;;6.80
20092;BMP180;10205;49.678;6.560;2023-02-22T05:37:05;99702.00;;;6.80
20092;BMP180;10205;49.678;6.560;2023-02-22T05:39:32;99709.00;;;6.80
20092;BMP180;10205;49.678;6.560;2023-02-22T05:41:59;99701.00;;;6.80
20092;BMP180;10205;49.678;6.560;2023-02-22T05:44:27;99725.00;;;6.70
20092;BMP180;10205;49.678;6.560;2023-02-22T05:46:54;99703.00;;;6.70
20092;BMP180;10205;49.678;6.560;2023-02-22T05:49:24;99697.00;;;6.70
20092;BMP180;10205;49.678;6.560;2023-02-22T05:51:52;99687.00;;;6.70
20092;BMP180;10205;49.678;6.560;2023-02-22T05:54:23;99684.00;;;6.70
20092;BMP180;10205;49.678;6.560;2023-02-22T05:56:50;99686.00;;;6.70
20092;BMP180;10205;49.678;6.560;2023-02-22T05:59:17;99692.00;;;6.70
20092;BMP180;10205;49.678;6.560;2023-02-22T06:01:45;99687.00;;;6.60
20092;BMP180;10205;49.678;6.560;2023-02-22T06:04:12;99667.00;;;6.60
20092;BMP180;10205;49.678;6.560;2023-02-22T06:06:39;99674.00;;;6.60
20092;BMP180;10205;49.678;6.560;2023-02-22T06:09:08;99672.00;;;6.60
20092;BMP180;10205;49.678;6.560;2023-02-22T06:11:35;99669.00;;;6.60
20092;BMP180;10205;49.678;6.560;2023-02-22T06:14:02;99686.00;;;6.60
20092;BMP180;10205;49.678;6.560;2023-02-22T06:16:29;99671.00;;;6.50
20092;BMP180;10205;49.678;6.560;2023-02-22T06:18:57;99665.00;;;6.50
20092;BMP180;10205;49.678;6.560;2023-02-22T06:21:24;99676.00;;;6.50
20092;BMP180;10205;49.678;6.560;2023-02-22T06:23:51;99675.00;;;6.50
20092;BMP180;10205;49.678;6.560;2023-02-22T06:26:20;99684.00;;;6.50
20092;BMP180;10205;49.678;6.560;2023-02-22T06:28:48;99671.00;;;6.50
20092;BMP180;10205;49.678;6.560;2023-02-22T06:31:15;99677.00;;;6.40
20092;BMP180;10205;49.678;6.560;2023-02-22T06:33:42;99682.00;;;6.40
20092;BMP180;10205;49.678;6.560;2023-02-22T06:36:09;99683.00;;;6.40
20092;BMP180;10205;49.678;6.560;2023-02-22T06:38:37;99671.00;;;6.40
20092;BMP180;10205;49.678;6.560;2023-02-22T06:41:04;99685.00;;;6.40
20092;BMP180;10205;49.678;6.560;2023-02-22T06:43:32;99688.00;;;6.40
20092;BMP180;10205;49.678;6.560;2023-02-22T06:46:00;99675.00;;;6.30
20092;BMP180;10205;49.678;6.560;2023-02-22T06:48:27;99683.00;;;6.30
20092;BMP180;10205;49.678;6.560;2023-02-22T06:50:54;99684.00;;;6.30
20092;BMP180;10205;49.678;6.560;2023-02-22T06:53:22;99695.00;;;6.30
20092;BMP180;10205;49.678;6.560;2023-02-22T06:55:52;99687.00;;;6.20
20092;BMP180;10205;49.678;6.560;2023-02-22T06:58:19;99683.00;;;6.30
20092;BMP180;10205;49.678;6.560;2023-02-22T07:00:48;99700.00;;;6.30
20092;BMP180;10205;49.678;6.560;2023-02-22T07:06:54;99681.00;;;6.20
20092;BMP180;10205;49.678;6.560;2023-02-22T07:09:21;99699.00;;;6.20
20092;BMP180;10205;49.678;6.560;2023-02-22T07:11:49;99691.00;;;6.20
20092;BMP180;10205;49.678;6.560;2023-02-22T07:14:16;99697.00;;;6.20
20092;BMP180;10205;49.678;6.560;2023-02-22T07:16:44;99701.00;;;6.10
20092;BMP180;10205;49.678;6.560;2023-02-22T07:19:12;99699.00;;;6.10
20092;BMP180;10205;49.678;6.560;2023-02-22T07:21:39;99694.00;;;6.10
20092;BMP180;10205;49.678;6.560;2023-02-22T07:24:07;99694.00;;;6.10
20092;BMP180;10205;49.678;6.560;2023-02-22T07:26:39;99690.00;;;6.10
20092;BMP180;10205;49.678;6.560;2023-02-22T07:29:07;99701.00;;;6.10
20092;BMP180;10205;49.678;6.560;2023-02-22T07:31:36;99708.00;;;6.10
20092;BMP180;10205;49.678;6.560;2023-02-22T07:34:05;99712.00;;;6.00
20092;BMP180;10205;49.678;6.560;2023-02-22T07:36:34;99715.00;;;6.00
20092;BMP180;10205;49.678;6.560;2023-02-22T07:39:01;99707.00;;;6.00
20092;BMP180;10205;49.678;6.560;2023-02-22T07:41:28;99709.00;;;6.00
20092;BMP180;10205;49.678;6.560;2023-02-22T07:43:56;99714.00;;;6.00
20092;BMP180;10205;49.678;6.560;2023-02-22T07:46:23;99703.00;;;6.00
20092;BMP180;10205;49.678;6.560;2023-02-22T07:48:50;99719.00;;;6.00
20092;BMP180;10205;49.678;6.560;2023-02-22T07:51:18;99699.00;;;6.00
20092;BMP180;10205;49.678;6.560;2023-02-22T07:53:47;99698.00;;;6.00
20092;BMP180;10205;49.678;6.560;2023-02-22T07:56:14;99694.00;;;6.00
20092;BMP180;10205;49.678;6.560;2023-02-22T07:58:43;99703.00;;;6.00
20092;BMP180;10205;49.678;6.560;2023-02-22T08:01:10;99698.00;;;6.00
20092;BMP180;10205;49.678;6.560;2023-02-22T08:03:37;99695.00;;;6.00
20092;BMP180;10205;49.678;6.560;2023-02-22T08:06:06;99697.00;;;5.90
20092;BMP180;10205;49.678;6.560;2023-02-22T08:08:37;99692.00;;;6.00
20092;BMP180;10205;49.678;6.560;2023-02-22T08:11:05;99699.00;;;5.90
20092;BMP180;10205;49.678;6.560;2023-02-22T08:13:32;99693.00;;;5.90
20092;BMP180;10205;49.678;6.560;2023-02-22T08:15:59;99688.00;;;5.90
20092;BMP180;10205;49.678;6.560;2023-02-22T08:18:26;99690.00;;;5.90
20092;BMP180;10205;49.678;6.560;2023-02-22T08:20:54;99686.00;;;6.00
20092;BMP180;10205;49.678;6.560;2023-02-22T08:23:24;99681.00;;;6.00
20092;BMP180;10205;49.678;6.560;2023-02-22T08:25:54;99690.00;;;6.00
20092;BMP180;10205;49.678;6.560;2023-02-22T08:28:23;99684.00;;;6.00
20092;BMP180;10205;49.678;6.560;2023-02-22T08:30:50;99695.00;;;6.00
20092;BMP180;10205;49.678;6.560;2023-02-22T08:33:21;99688.00;;;6.00
20092;BMP180;10205;49.678;6.560;2023-02-22T08:35:48;99686.00;;;6.00
20092;BMP180;10205;49.678;6.560;2023-02-22T08:38:30;99685.00;;;6.00
20092;BMP180;10205;49.678;6.560;2023-02-22T08:41:00;99684.00;;;6.00
20092;BMP180;10205;49.678;6.560;2023-02-22T08:43:27;99688.00;;;6.00
20092;BMP180;10205;49.678;6.560;2023-02-22T08:45:54;99678.00;;;6.10
20092;BMP180;10205;49.678;6.560;2023-02-22T08:48:23;99678.00;;;6.10
20092;BMP180;10205;49.678;6.560;2023-02-22T08:50:50;99676.00;;;6.10
20092;BMP180;10205;49.678;6.560;2023-02-22T08:53:18;99676.00;;;6.10
20092;BMP180;10205;49.678;6.560;2023-02-22T08:55:47;99682.00;;;6.20
20092;BMP180;10205;49.678;6.560;2023-02-22T08:58:16;99682.00;;;6.20
20092;BMP180;10205;49.678;6.560;2023-02-22T09:00:43;99677.00;;;6.20
20092;BMP180;10205;49.678;6.560;2023-02-22T09:03:13;99679.00;;;6.30
20092;BMP180;10205;49.678;6.560;2023-02-22T09:05:47;99666.00;;;6.30
20092;BMP180;10205;49.678;6.560;2023-02-22T09:08:15;99671.00;;;6.30
20092;BMP180;10205;49.678;6.560;2023-02-22T09:10:43;99665.00;;;6.40
20092;BMP180;10205;49.678;6.560;2023-02-22T09:13:18;99655.00;;;6.40
20092;BMP180;10205;49.678;6.560;2023-02-22T09:15:45;99660.00;;;6.50
20092;BMP180;10205;49.678;6.560;2023-02-22T09:18:13;99658.00;;;6.50
20092;BMP180;10205;49.678;6.560;2023-02-22T09:20:42;99649.00;;;6.50
20092;BMP180;10205;49.678;6.560;2023-02-22T09:23:10;99634.00;;;6.60
20092;BMP180;10205;49.678;6.560;2023-02-22T09:25:38;99642.00;;;6.60
20092;BMP180;10205;49.678;6.560;2023-02-22T09:28:06;99631.00;;;6.70
20092;BMP180;10205;49.678;6.560;2023-02-22T09:30:36;99628.00;;;6.70
20092;BMP180;10205;49.678;6.560;2023-02-22T09:33:06;99637.00;;;6.80
20092;BMP180;10205;49.678;6.560;2023-02-22T09:35:35;99630.00;;;6.80
20092;BMP180;10205;49.678;6.560;2023-02-22T09:38:08;99629.00;;;6.90
20092;BMP180;10205;49.678;6.560;2023-02-22T09:40:41;99624.00;;;7.00
20092;BMP180;10205;49.678;6.560;2023-02-22T09:43:31;99633.00;;;7.00
20092;BMP180;10205;49.678;6.560;2023-02-22T09:46:22;99632.00;;;7.10
20092;BMP180;10205;49.678;6.560;2023-02-22T09:49:02;99627.00;;;7.10
20092;BMP180;10205;49.678;6.560;2023-02-22T09:51:39;99624.00;;;7.20
20092;BMP180;10205;49.678;6.560;2023-02-22T09:54:16;99618.00;;;7.30
20092;BMP180;10205;49.678;6.560;2023-02-22T09:56:54;99621.00;;;7.40
20092;BMP180;10205;49.678;6.560;2023-02-22T09:59:38;99613.00;;;7.50
20092;BMP180;10205;49.678;6.560;2023-02-22T10:02:22;99635.00;;;7.60
20092;BMP180;10205;49.678;6.560;2023-02-22T10:04:59;99619.00;;;7.60
20092;BMP180;10205;49.678;6.560;2023-02-22T10:07:34;99618.00;;;7.70
20092;BMP180;10205;49.678;6.560;2023-02-22T10:10:06;99614.00;;;7.80
20092;BMP180;10205;49.678;6.560;2023-02-22T10:12:47;99615.00;;;7.90
20092;BMP180;10205;49.678;6.560;2023-02-22T10:15:43;99606.00;;;8.00
20092;BMP180;10205;49.678;6.560;2023-02-22T10:19:01;99605.00;;;8.00
20092;BMP180;10205;49.678;6.560;2023-02-22T10:22:01;99593.00;;;8.10
20092;BMP180;10205;49.678;6.560;2023-02-22T10:24:52;99608.00;;;8.20
20092;BMP180;10205;49.678;6.560;2023-02-22T10:27:26;99603.00;;;8.20
20092;BMP180;10205;49.678;6.560;2023-02-22T10:30:01;99609.00;;;8.30
20092;BMP180;10205;49.678;6.560;2023-02-22T10:32:41;99601.00;;;8.40
20092;BMP180;10205;49.678;6.560;2023-02-22T10:35:20;99603.00;;;8.50
20092;BMP180;10205;49.678;6.560;2023-02-22T10:37:52;99602.00;;;8.50
20092;BMP180;10205;49.678;6.560;2023-02-22T10:40:23;99598.00;;;8.60
20092;BMP180;10205;49.678;6.560;2023-02-22T10:43:02;99597.00;;;8.70
20092;BMP180;10205;49.678;6.560;2023-02-22T10:45:33;99586.00;;;8.80
20092;BMP180;10205;49.678;6.560;2023-02-22T10:48:09;99587.00;;;8.90
20092;BMP180;10205;49.678;6.560;2023-02-22T10:50:41;99584.00;;;9.00
20092;BMP180;10205;49.678;6.560;2023-02-22T10:53:11;99580.00;;;9.10
20092;BMP180;10205;49.678;6.560;2023-02-22T10:56:15;99580.00;;;9.10
20092;BMP180;10205;49.678;6.560;2023-02-22T10:58:50;99586.00;;;9.20
20092;BMP180;10205;49.678;6.560;2023-02-22T11:01:25;99581.00;;;9.30
20092;BMP180;10205;49.678;6.560;2023-02-22T11:04:06;99581.00;;;9.40
20092;BMP180;10205;49.678;6.560;2023-02-22T11:06:36;99576.00;;;9.50
20092;BMP180;10205;49.678;6.560;2023-02-22T11:09:08;99578.00;;;9.50
20092;BMP180;10205;49.678;6.560;2023-02-22T11:11:37;99578.00;;;9.70
20092;BMP180;10205;49.678;6.560;2023-02-22T11:14:06;99569.00;;;9.80
20092;BMP180;10205;49.678;6.560;2023-02-22T11:16:38;99568.00;;;9.90
20092;BMP180;10205;49.678;6.560;2023-02-22T11:19:20;99564.00;;;10.00
20092;BMP180;10205;49.678;6.560;2023-02-22T11:21:54;99569.00;;;10.10
20092;BMP180;10205;49.678;6.560;2023-02-22T11:24:24;99555.00;;;10.10
20092;BMP180;10205;49.678;6.560;2023-02-22T11:26:55;99560.00;;;10.20
20092;BMP180;10205;49.678;6.560;2023-02-22T11:29:27;99565.00;;;10.30
20092;BMP180;10205;49.678;6.560;2023-02-22T11:32:00;99567.00;;;10.40
20092;BMP180;10205;49.678;6.560;2023-02-22T11:34:34;99572.00;;;10.50
20092;BMP180;10205;49.678;6.560;2023-02-22T11:37:27;99578.00;;;10.60
20092;BMP180;10205;49.678;6.560;2023-02-22T11:40:15;99574.00;;;10.70
20092;BMP180;10205;49.678;6.560;2023-02-22T11:42:45;99576.00;;;10.80
20092;BMP180;10205;49.678;6.560;2023-02-22T11:45:18;99568.00;;;10.90
20092;BMP180;10205;49.678;6.560;2023-02-22T11:47:52;99569.00;;;11.10
20092;BMP180;10205;49.678;6.560;2023-02-22T11:50:27;99567.00;;;11.20
20092;BMP180;10205;49.678;6.560;2023-02-22T11:53:24;99560.00;;;11.30
20092;BMP180;10205;49.678;6.560;2023-02-22T11:56:13;99557.00;;;11.40
20092;BMP180;10205;49.678;6.560;2023-02-22T11:58:49;99543.00;;;11.50
20092;BMP180;10205;49.678;6.560;2023-02-22T12:01:30;99541.00;;;11.60
20092;BMP180;10205;49.678;6.560;2023-02-22T12:04:59;99548.00;;;11.70
20092;BMP180;10205;49.678;6.560;2023-02-22T12:07:45;99537.00;;;11.70
20092;BMP180;10205;49.678;6.560;2023-02-22T12:10:25;99541.00;;;11.80
20092;BMP180;10205;49.678;6.560;2023-02-22T12:13:16;99538.00;;;11.90
20092;BMP180;10205;49.678;6.560;2023-02-22T12:15:54;99539.00;;;12.00
20092;BMP180;10205;49.678;6.560;2023-02-22T12:18:35;99538.00;;;12.10
20092;BMP180;10205;49.678;6.560;2023-02-22T12:21:12;99535.00;;;12.10
20092;BMP180;10205;49.678;6.560;2023-02-22T12:23:49;99527.00;;;12.20
20092;BMP180;10205;49.678;6.560;2023-02-22T12:26:27;99529.00;;;12.30
20092;BMP180;10205;49.678;6.560;2023-02-22T12:29:05;99527.00;;;12.30
20092;BMP180;10205;49.678;6.560;2023-02-22T12:31:41;99517.00;;;12.40
20092;BMP180;10205;49.678;6.560;2023-02-22T12:34:24;99524.00;;;12.50
20092;BMP180;10205;49.678;6.560;2023-02-22T12:36:55;99524.00;;;12.50
20092;BMP180;10205;49.678;6.560;2023-02-22T12:39:45;99533.00;;;12.60
20092;BMP180;10205;49.678;6.560;2023-02-22T12:42:23;99522.00;;;12.60
20092;BMP180;10205;49.678;6.560;2023-02-22T12:45:00;99536.00;;;12.70
20092;BMP180;10205;49.678;6.560;2023-02-22T12:47:39;99533.00;;;12.70
20092;BMP180;10205;49.678;6.560;2023-02-22T12:50:16;99526.00;;;12.70
20092;BMP180;10205;49.678;6.560;2023-02-22T12:52:52;99528.00;;;12.80
20092;BMP180;10205;49.678;6.560;2023-02-22T12:55:25;99537.00;;;12.90
20092;BMP180;10205;49.678;6.560;2023-02-22T12:58:06;99534.00;;;12.90
20092;BMP180;10205;49.678;6.560;2023-02-22T13:00:43;99533.00;;;13.00
20092;BMP180;10205;49.678;6.560;2023-02-22T13:03:32;99531.00;;;13.00
20092;BMP180;10205;49.678;6.560;2023-02-22T13:06:30;99517.00;;;13.10
20092;BMP180;10205;49.678;6.560;2023-02-22T13:09:26;99525.00;;;13.10
20092;BMP180;10205;49.678;6.560;2023-02-22T13:12:06;99517.00;;;13.20
20092;BMP180;10205;49.678;6.560;2023-02-22T13:14:56;99514.00;;;13.20
20092;BMP180;10205;49.678;6.560;2023-02-22T13:17:35;99517.00;;;13.30
20092;BMP180;10205;49.678;6.560;2023-02-22T13:20:13;99526.00;;;13.30
20092;BMP180;10205;49.678;6.560;2023-02-22T13:22:53;99513.00;;;13.40
20092;BMP180;10205;49.678;6.560;2023-02-22T13:25:32;99510.00;;;13.40
20092;BMP180;10205;49.678;6.560;2023-02-22T13:28:19;99500.00;;;13.50
20092;BMP180;10205;49.678;6.560;2023-02-22T13:31:06;99506.00;;;13.60
20092;BMP180;10205;49.678;6.560;2023-02-22T13:33:59;99508.00;;;13.60
20092;BMP180;10205;49.678;6.560;2023-02-22T13:36:37;99502.00;;;13.70
20092;BMP180;10205;49.678;6.560;2023-02-22T13:39:43;99501.00;;;13.70
20092;BMP180;10205;49.678;6.560;2023-02-22T13:43:01;99503.00;;;13.80
20092;BMP180;10205;49.678;6.560;2023-02-22T13:46:15;99506.00;;;13.80
20092;BMP180;10205;49.678;6.560;2023-02-22T13:49:10;99503.00;;;13.90
20092;BMP180;10205;49.678;6.560;2023-02-22T13:51:49;99504.00;;;13.90
20092;BMP180;10205;49.678;6.560;2023-02-22T13:54:24;99507.00;;;14.00
20092;BMP180;10205;49.678;6.560;2023-02-22T13:56:55;99499.00;;;14.00
20092;BMP180;10205;49.678;6.560;2023-02-22T13:59:31;99501.00;;;14.10
20092;BMP180;10205;49.678;6.560;2023-02-22T14:02:02;99497.00;;;14.20
20092;BMP180;10205;49.678;6.560;2023-02-22T14:04:40;99503.00;;;14.20
20092;BMP180;10205;49.678;6.560;2023-02-22T14:07:54;99498.00;;;14.30
20092;BMP180;10205;49.678;6.560;2023-02-22T14:10:46;99511.00;;;14.30
20092;BMP180;10205;49.678;6.560;2023-02-22T14:13:15;99508.00;;;14.30
20092;BMP180;10205;49.678;6.560;2023-02-22T14:16:20;99502.00;;;14.40
20092;BMP180;10205;49.678;6.560;2023-02-22T14:19:01;99497.00;;;14.40
20092;BMP180;10205;49.678;6.560;2023-02-22T14:21:31;99498.00;;;14.50
20092;BMP180;10205;49.678;6.560;2023-02-22T14:24:08;99495.00;;;14.50
20092;BMP180;10205;49.678;6.560;2023-02-22T14:26:39;99503.00;;;14.60
20092;BMP180;10205;49.678;6.560;2023-02-22T14:29:20;99504.00;;;14.60
20092;BMP180;10205;49.678;6.560;2023-02-22T14:32:04;99498.00;;;14.70
20092;BMP180;10205;49.678;6.560;2023-02-22T14:34:50;99499.00;;;14.70
20092;BMP180;10205;49.678;6.560;2023-02-22T14:37:23;99489.00;;;14.70
20092;BMP180;10205;49.678;6.560;2023-02-22T14:39:57;99496.00;;;14.70
20092;BMP180;10205;49.678;6.560;2023-02-22T14:42:31;99493.00;;;14.80
20092;BMP180;10205;49.678;6.560;2023-02-22T14:45:13;99496.00;;;14.80
20092;BMP180;10205;49.678;6.560;2023-02-22T14:47:48;99506.00;;;14.80
20092;BMP180;10205;49.678;6.560;2023-02-22T14:50:31;99490.00;;;14.90
20092;BMP180;10205;49.678;6.560;2023-02-22T14:53:02;99499.00;;;14.90
20092;BMP180;10205;49.678;6.560;2023-02-22T14:55:36;99501.00;;;14.90
20092;BMP180;10205;49.678;6.560;2023-02-22T14:58:12;99504.00;;;15.00
20092;BMP180;10205;49.678;6.560;2023-02-22T15:00:46;99501.00;;;15.00
20092;BMP180;10205;49.678;6.560;2023-02-22T15:03:26;99497.00;;;15.00
20092;BMP180;10205;49.678;6.560;2023-02-22T15:06:05;99499.00;;;15.00